sensor_id;sensor_type;location;lat;lon;timestamp;P1;durP1;ratioP1;P2;durP2;ratioP2
3527;SDS011;1778;47.966;7.854;2022-08-19T00:00:27;18.43;;;16.80;;
3527;SDS011;1778;47.966;7.854;2022-08-19T00:01:29;17.50;;;15.70;;
3527;SDS011;1778;47.966;7.854;2022-08-19T00:02:31;18.30;;;16.80;;
3527;SDS011;1778;47.966;7.854;2022-08-19T00:03:33;18.30;;;16.80;;
3527;SDS011;1778;47.966;7.854;2022-08-19T00:04:35;18.87;;;17.07;;
3527;SDS011;1778;47.966;7.854;2022-08-19T00:05:37;18.20;;;16.43;;
3527;SDS011;1778;47.966;7.854;2022-08-19T00:06:40;18.50;;;16.90;;
3527;SDS011;1778;47.966;7.854;2022-08-19T00:07:42;19.40;;;17.47;;
3527;SDS011;1778;47.966;7.854;2022-08-19T00:08:44;23.10;;;17.30;;
3527;SDS011;1778;47.966;7.854;2022-08-19T00:09:46;18.87;;;17.00;;
3527;SDS011;1778;47.966;7.854;2022-08-19T00:10:48;19.33;;;17.60;;
3527;SDS011;1778;47.966;7.854;2022-08-19T00:11:50;18.17;;;16.47;;
3527;SDS011;1778;47.966;7.854;2022-08-19T00:12:53;19.83;;;17.93;;
3527;SDS011;1778;47.966;7.854;2022-08-19T00:13:55;19.43;;;17.53;;
3527;SDS011;1778;47.966;7.854;2022-08-19T00:14:57;18.80;;;17.00;;
3527;SDS011;1778;47.966;7.854;2022-08-19T00:15:59;18.27;;;16.33;;
3527;SDS011;1778;47.966;7.854;2022-08-19T00:17:01;19.13;;;17.20;;
3527;SDS011;1778;47.966;7.854;2022-08-19T00:18:04;21.27;;;19.27;;
3527;SDS011;1778;47.966;7.854;2022-08-19T00:19:05;19.17;;;17.30;;
3527;SDS011;1778;47.966;7.854;2022-08-19T00:20:08;20.83;;;17.17;;
3527;SDS011;1778;47.966;7.854;2022-08-19T00:21:11;19.10;;;15.73;;
3527;SDS011;1778;47.966;7.854;2022-08-19T00:22:13;19.33;;;17.43;;
3527;SDS011;1778;47.966;7.854;2022-08-19T00:23:15;18.53;;;16.70;;
3527;SDS011;1778;47.966;7.854;2022-08-19T00:24:17;18.80;;;17.10;;
3527;SDS011;1778;47.966;7.854;2022-08-19T00:25:19;19.57;;;17.77;;
3527;SDS011;1778;47.966;7.854;2022-08-19T00:26:30;18.93;;;17.23;;
3527;SDS011;1778;47.966;7.854;2022-08-19T00:27:32;18.83;;;17.03;;
3527;SDS011;1778;47.966;7.854;2022-08-19T00:28:34;19.80;;;18.00;;
3527;SDS011;1778;47.966;7.854;2022-08-19T00:29:37;19.33;;;17.63;;
3527;SDS011;1778;47.966;7.854;2022-08-19T00:30:39;20.40;;;18.40;;
3527;SDS011;1778;47.966;7.854;2022-08-19T00:31:42;19.00;;;17.20;;
3527;SDS011;1778;47.966;7.854;2022-08-19T00:32:44;17.93;;;16.33;;
3527;SDS011;1778;47.966;7.854;2022-08-19T00:33:45;20.70;;;18.17;;
3527;SDS011;1778;47.966;7.854;2022-08-19T00:34:48;20.20;;;18.30;;
3527;SDS011;1778;47.966;7.854;2022-08-19T00:35:51;20.13;;;18.23;;
3527;SDS011;1778;47.966;7.854;2022-08-19T00:36:56;20.37;;;18.57;;
3527;SDS011;1778;47.966;7.854;2022-08-19T00:37:59;24.83;;;18.93;;
3527;SDS011;1778;47.966;7.854;2022-08-19T00:39:00;19.33;;;17.73;;
3527;SDS011;1778;47.966;7.854;2022-08-19T00:40:03;24.20;;;18.30;;
3527;SDS011;1778;47.966;7.854;2022-08-19T00:41:06;20.53;;;18.53;;
3527;SDS011;1778;47.966;7.854;2022-08-19T00:42:08;19.13;;;17.43;;
3527;SDS011;1778;47.966;7.854;2022-08-19T00:43:10;21.47;;;19.37;;
3527;SDS011;1778;47.966;7.854;2022-08-19T00:44:16;20.00;;;18.20;;
3527;SDS011;1778;47.966;7.854;2022-08-19T00:45:27;20.70;;;18.80;;
3527;SDS011;1778;47.966;7.854;2022-08-19T00:46:37;23.03;;;17.70;;
3527;SDS011;1778;47.966;7.854;2022-08-19T00:47:40;18.83;;;17.03;;
3527;SDS011;1778;47.966;7.854;2022-08-19T00:48:42;22.10;;;19.93;;
3527;SDS011;1778;47.966;7.854;2022-08-19T00:49:45;20.07;;;18.17;;
3527;SDS011;1778;47.966;7.854;2022-08-19T00:50:56;19.43;;;17.67;;
3527;SDS011;1778;47.966;7.854;2022-08-19T00:52:05;19.63;;;17.90;;
3527;SDS011;1778;47.966;7.854;2022-08-19T00:53:10;19.90;;;18.17;;
3527;SDS011;1778;47.966;7.854;2022-08-19T00:54:16;20.37;;;18.37;;
3527;SDS011;1778;47.966;7.854;2022-08-19T00:55:28;20.37;;;18.17;;
3527;SDS011;1778;47.966;7.854;2022-08-19T00:56:31;18.23;;;16.63;;
3527;SDS011;1778;47.966;7.854;2022-08-19T00:57:35;18.67;;;16.97;;
3527;SDS011;1778;47.966;7.854;2022-08-19T00:58:40;21.13;;;19.23;;
3527;SDS011;1778;47.966;7.854;2022-08-19T00:59:43;19.77;;;17.87;;
3527;SDS011;1778;47.966;7.854;2022-08-19T01:01:02;19.67;;;17.80;;
3527;SDS011;1778;47.966;7.854;2022-08-19T01:02:05;18.87;;;17.17;;
3527;SDS011;1778;47.966;7.854;2022-08-19T01:03:08;20.30;;;18.50;;
3527;SDS011;1778;47.966;7.854;2022-08-19T01:04:12;20.40;;;18.50;;
3527;SDS011;1778;47.966;7.854;2022-08-19T01:05:16;19.37;;;17.70;;
3527;SDS011;1778;47.966;7.854;2022-08-19T01:06:21;19.63;;;17.93;;
3527;SDS011;1778;47.966;7.854;2022-08-19T01:07:23;19.70;;;18.10;;
3527;SDS011;1778;47.966;7.854;2022-08-19T01:08:25;26.53;;;17.83;;
3527;SDS011;1778;47.966;7.854;2022-08-19T01:09:26;21.27;;;19.40;;
3527;SDS011;1778;47.966;7.854;2022-08-19T01:10:29;20.53;;;18.43;;
3527;SDS011;1778;47.966;7.854;2022-08-19T01:11:38;19.17;;;17.43;;
3527;SDS011;1778;47.966;7.854;2022-08-19T01:12:42;20.90;;;17.53;;
3527;SDS011;1778;47.966;7.854;2022-08-19T01:13:45;17.97;;;16.47;;
3527;SDS011;1778;47.966;7.854;2022-08-19T01:14:50;19.37;;;17.70;;
3527;SDS011;1778;47.966;7.854;2022-08-19T01:15:58;18.83;;;17.17;;
3527;SDS011;1778;47.966;7.854;2022-08-19T01:17:03;19.23;;;17.43;;
3527;SDS011;1778;47.966;7.854;2022-08-19T01:18:06;19.60;;;17.90;;
3527;SDS011;1778;47.966;7.854;2022-08-19T01:19:44;20.83;;;18.27;;
3527;SDS011;1778;47.966;7.854;2022-08-19T01:20:44;21.67;;;17.60;;
3527;SDS011;1778;47.966;7.854;2022-08-19T01:21:48;19.90;;;17.83;;
3527;SDS011;1778;47.966;7.854;2022-08-19T01:22:58;19.73;;;17.83;;
3527;SDS011;1778;47.966;7.854;2022-08-19T01:24:00;20.00;;;18.20;;
3527;SDS011;1778;47.966;7.854;2022-08-19T01:25:02;17.90;;;16.20;;
3527;SDS011;1778;47.966;7.854;2022-08-19T01:26:15;20.57;;;18.67;;
3527;SDS011;1778;47.966;7.854;2022-08-19T01:27:20;20.30;;;18.20;;
3527;SDS011;1778;47.966;7.854;2022-08-19T01:28:23;21.13;;;18.83;;
3527;SDS011;1778;47.966;7.854;2022-08-19T01:29:41;19.67;;;17.73;;
3527;SDS011;1778;47.966;7.854;2022-08-19T01:30:44;18.40;;;16.63;;
3527;SDS011;1778;47.966;7.854;2022-08-19T01:31:51;19.70;;;17.80;;
3527;SDS011;1778;47.966;7.854;2022-08-19T01:32:54;19.50;;;17.73;;
3527;SDS011;1778;47.966;7.854;2022-08-19T01:33:56;20.07;;;18.07;;
3527;SDS011;1778;47.966;7.854;2022-08-19T01:34:59;19.00;;;17.30;;
3527;SDS011;1778;47.966;7.854;2022-08-19T01:36:03;18.07;;;16.40;;
3527;SDS011;1778;47.966;7.854;2022-08-19T01:37:07;20.10;;;18.20;;
3527;SDS011;1778;47.966;7.854;2022-08-19T01:38:22;20.03;;;18.13;;
3527;SDS011;1778;47.966;7.854;2022-08-19T01:39:27;19.10;;;17.40;;
3527;SDS011;1778;47.966;7.854;2022-08-19T01:40:29;22.73;;;18.20;;
3527;SDS011;1778;47.966;7.854;2022-08-19T01:41:34;19.40;;;17.60;;
3527;SDS011;1778;47.966;7.854;2022-08-19T01:42:36;19.97;;;18.00;;
3527;SDS011;1778;47.966;7.854;2022-08-19T01:43:37;18.70;;;16.90;;
3527;SDS011;1778;47.966;7.854;2022-08-19T01:44:59;19.77;;;18.07;;
3527;SDS011;1778;47.966;7.854;2022-08-19T01:46:01;20.63;;;18.80;;
3527;SDS011;1778;47.966;7.854;2022-08-19T01:47:04;20.67;;;18.50;;
3527;SDS011;1778;47.966;7.854;2022-08-19T01:48:06;18.73;;;17.03;;
3527;SDS011;1778;47.966;7.854;2022-08-19T01:49:08;19.77;;;17.77;;
3527;SDS011;1778;47.966;7.854;2022-08-19T01:50:12;18.90;;;17.30;;
3527;SDS011;1778;47.966;7.854;2022-08-19T01:51:14;18.57;;;16.90;;
3527;SDS011;1778;47.966;7.854;2022-08-19T01:52:17;18.70;;;17.00;;
3527;SDS011;1778;47.966;7.854;2022-08-19T01:53:18;19.70;;;17.80;;
3527;SDS011;1778;47.966;7.854;2022-08-19T01:54:22;20.43;;;18.50;;
3527;SDS011;1778;47.966;7.854;2022-08-19T01:55:28;18.40;;;16.60;;
3527;SDS011;1778;47.966;7.854;2022-08-19T01:56:29;21.97;;;18.33;;
3527;SDS011;1778;47.966;7.854;2022-08-19T01:57:31;21.70;;;17.87;;
3527;SDS011;1778;47.966;7.854;2022-08-19T01:58:35;20.63;;;18.73;;
3527;SDS011;1778;47.966;7.854;2022-08-19T01:59:41;19.87;;;17.77;;
3527;SDS011;1778;47.966;7.854;2022-08-19T02:00:44;19.70;;;17.80;;
3527;SDS011;1778;47.966;7.854;2022-08-19T02:01:46;18.70;;;17.00;;
3527;SDS011;1778;47.966;7.854;2022-08-19T02:02:48;19.47;;;17.57;;
3527;SDS011;1778;47.966;7.854;2022-08-19T02:03:50;20.20;;;17.40;;
3527;SDS011;1778;47.966;7.854;2022-08-19T02:04:56;19.07;;;17.27;;
3527;SDS011;1778;47.966;7.854;2022-08-19T02:06:00;20.50;;;18.53;;
3527;SDS011;1778;47.966;7.854;2022-08-19T02:07:06;19.70;;;17.77;;
3527;SDS011;1778;47.966;7.854;2022-08-19T02:08:09;27.83;;;18.20;;
3527;SDS011;1778;47.966;7.854;2022-08-19T02:09:11;19.77;;;17.80;;
3527;SDS011;1778;47.966;7.854;2022-08-19T02:10:15;19.20;;;17.40;;
3527;SDS011;1778;47.966;7.854;2022-08-19T02:11:24;20.67;;;18.67;;
3527;SDS011;1778;47.966;7.854;2022-08-19T02:12:28;28.93;;;18.50;;
3527;SDS011;1778;47.966;7.854;2022-08-19T02:13:31;25.37;;;18.40;;
3527;SDS011;1778;47.966;7.854;2022-08-19T02:14:33;19.43;;;17.63;;
3527;SDS011;1778;47.966;7.854;2022-08-19T02:15:36;19.60;;;17.87;;
3527;SDS011;1778;47.966;7.854;2022-08-19T02:16:38;22.70;;;18.23;;
3527;SDS011;1778;47.966;7.854;2022-08-19T02:17:40;19.43;;;17.43;;
3527;SDS011;1778;47.966;7.854;2022-08-19T02:18:42;21.97;;;19.87;;
3527;SDS011;1778;47.966;7.854;2022-08-19T02:19:44;20.57;;;18.57;;
3527;SDS011;1778;47.966;7.854;2022-08-19T02:20:46;18.97;;;17.07;;
3527;SDS011;1778;47.966;7.854;2022-08-19T02:21:50;28.90;;;18.03;;
3527;SDS011;1778;47.966;7.854;2022-08-19T02:22:52;20.13;;;18.13;;
3527;SDS011;1778;47.966;7.854;2022-08-19T02:23:54;20.03;;;17.83;;
3527;SDS011;1778;47.966;7.854;2022-08-19T02:24:56;20.53;;;18.33;;
3527;SDS011;1778;47.966;7.854;2022-08-19T02:25:58;22.57;;;18.40;;
3527;SDS011;1778;47.966;7.854;2022-08-19T02:27:00;21.07;;;18.97;;
3527;SDS011;1778;47.966;7.854;2022-08-19T02:28:02;20.63;;;18.53;;
3527;SDS011;1778;47.966;7.854;2022-08-19T02:29:04;20.73;;;18.53;;
3527;SDS011;1778;47.966;7.854;2022-08-19T02:30:07;20.47;;;18.07;;
3527;SDS011;1778;47.966;7.854;2022-08-19T02:31:18;17.67;;;16.10;;
3527;SDS011;1778;47.966;7.854;2022-08-19T02:32:21;18.93;;;17.23;;
3527;SDS011;1778;47.966;7.854;2022-08-19T02:33:23;19.53;;;17.73;;
3527;SDS011;1778;47.966;7.854;2022-08-19T02:34:24;19.13;;;17.17;;
3527;SDS011;1778;47.966;7.854;2022-08-19T02:35:26;19.77;;;17.50;;
3527;SDS011;1778;47.966;7.854;2022-08-19T02:36:27;20.17;;;17.50;;
3527;SDS011;1778;47.966;7.854;2022-08-19T02:37:30;21.10;;;16.83;;
3527;SDS011;1778;47.966;7.854;2022-08-19T02:38:50;18.87;;;17.03;;
3527;SDS011;1778;47.966;7.854;2022-08-19T02:39:55;19.50;;;16.47;;
3527;SDS011;1778;47.966;7.854;2022-08-19T02:41:01;18.33;;;16.70;;
3527;SDS011;1778;47.966;7.854;2022-08-19T02:42:04;18.33;;;16.63;;
3527;SDS011;1778;47.966;7.854;2022-08-19T02:43:07;19.43;;;17.60;;
3527;SDS011;1778;47.966;7.854;2022-08-19T02:44:09;17.80;;;16.17;;
3527;SDS011;1778;47.966;7.854;2022-08-19T02:45:34;17.93;;;16.30;;
3527;SDS011;1778;47.966;7.854;2022-08-19T02:46:41;19.27;;;17.40;;
3527;SDS011;1778;47.966;7.854;2022-08-19T02:47:45;17.90;;;16.20;;
3527;SDS011;1778;47.966;7.854;2022-08-19T02:48:50;18.30;;;16.53;;
3527;SDS011;1778;47.966;7.854;2022-08-19T02:49:54;18.20;;;16.30;;
3527;SDS011;1778;47.966;7.854;2022-08-19T02:50:55;18.47;;;16.57;;
3527;SDS011;1778;47.966;7.854;2022-08-19T02:51:57;18.70;;;16.87;;
3527;SDS011;1778;47.966;7.854;2022-08-19T02:52:59;18.30;;;16.60;;
3527;SDS011;1778;47.966;7.854;2022-08-19T02:54:01;20.57;;;16.70;;
3527;SDS011;1778;47.966;7.854;2022-08-19T02:55:04;18.70;;;17.00;;
3527;SDS011;1778;47.966;7.854;2022-08-19T02:56:06;17.70;;;16.17;;
3527;SDS011;1778;47.966;7.854;2022-08-19T02:57:09;18.07;;;16.20;;
3527;SDS011;1778;47.966;7.854;2022-08-19T02:58:11;19.00;;;17.30;;
3527;SDS011;1778;47.966;7.854;2022-08-19T02:59:13;16.77;;;15.17;;
3527;SDS011;1778;47.966;7.854;2022-08-19T03:00:15;17.77;;;15.80;;
3527;SDS011;1778;47.966;7.854;2022-08-19T03:01:25;18.50;;;16.60;;
3527;SDS011;1778;47.966;7.854;2022-08-19T03:02:29;19.37;;;17.67;;
3527;SDS011;1778;47.966;7.854;2022-08-19T03:03:31;17.73;;;15.57;;
3527;SDS011;1778;47.966;7.854;2022-08-19T03:04:33;16.37;;;14.53;;
3527;SDS011;1778;47.966;7.854;2022-08-19T03:05:35;17.17;;;15.50;;
3527;SDS011;1778;47.966;7.854;2022-08-19T03:06:56;17.30;;;15.50;;
3527;SDS011;1778;47.966;7.854;2022-08-19T03:08:11;16.80;;;15.20;;
3527;SDS011;1778;47.966;7.854;2022-08-19T03:09:14;16.87;;;15.30;;
3527;SDS011;1778;47.966;7.854;2022-08-19T03:10:17;16.93;;;15.43;;
3527;SDS011;1778;47.966;7.854;2022-08-19T03:11:23;17.87;;;16.20;;
3527;SDS011;1778;47.966;7.854;2022-08-19T03:12:28;18.37;;;16.57;;
3527;SDS011;1778;47.966;7.854;2022-08-19T03:13:30;16.13;;;14.80;;
3527;SDS011;1778;47.966;7.854;2022-08-19T03:14:32;18.47;;;16.63;;
3527;SDS011;1778;47.966;7.854;2022-08-19T03:15:35;17.97;;;16.27;;
3527;SDS011;1778;47.966;7.854;2022-08-19T03:16:42;17.90;;;16.33;;
3527;SDS011;1778;47.966;7.854;2022-08-19T03:17:46;19.40;;;17.60;;
3527;SDS011;1778;47.966;7.854;2022-08-19T03:18:47;19.60;;;17.50;;
3527;SDS011;1778;47.966;7.854;2022-08-19T03:19:50;18.63;;;16.93;;
3527;SDS011;1778;47.966;7.854;2022-08-19T03:20:52;20.53;;;16.93;;
3527;SDS011;1778;47.966;7.854;2022-08-19T03:21:55;18.70;;;16.63;;
3527;SDS011;1778;47.966;7.854;2022-08-19T03:22:56;17.57;;;15.97;;
3527;SDS011;1778;47.966;7.854;2022-08-19T03:23:59;17.20;;;15.70;;
3527;SDS011;1778;47.966;7.854;2022-08-19T03:25:04;17.37;;;15.60;;
3527;SDS011;1778;47.966;7.854;2022-08-19T03:26:05;18.73;;;16.83;;
3527;SDS011;1778;47.966;7.854;2022-08-19T03:27:17;21.50;;;17.23;;
3527;SDS011;1778;47.966;7.854;2022-08-19T03:28:19;17.73;;;15.97;;
3527;SDS011;1778;47.966;7.854;2022-08-19T03:29:21;17.57;;;15.97;;
3527;SDS011;1778;47.966;7.854;2022-08-19T03:30:31;19.33;;;16.27;;
3527;SDS011;1778;47.966;7.854;2022-08-19T03:31:33;18.03;;;16.20;;
3527;SDS011;1778;47.966;7.854;2022-08-19T03:32:52;18.53;;;16.70;;
3527;SDS011;1778;47.966;7.854;2022-08-19T03:33:57;18.03;;;16.20;;
3527;SDS011;1778;47.966;7.854;2022-08-19T03:34:59;18.30;;;16.50;;
3527;SDS011;1778;47.966;7.854;2022-08-19T03:37:06;17.13;;;15.43;;
3527;SDS011;1778;47.966;7.854;2022-08-19T03:38:10;18.83;;;17.10;;
3527;SDS011;1778;47.966;7.854;2022-08-19T03:39:11;18.87;;;17.13;;
3527;SDS011;1778;47.966;7.854;2022-08-19T03:40:13;18.10;;;16.20;;
3527;SDS011;1778;47.966;7.854;2022-08-19T03:41:20;18.23;;;16.40;;
3527;SDS011;1778;47.966;7.854;2022-08-19T03:42:34;17.27;;;15.57;;
3527;SDS011;1778;47.966;7.854;2022-08-19T03:43:49;27.70;;;15.77;;
3527;SDS011;1778;47.966;7.854;2022-08-19T03:44:52;17.10;;;15.43;;
3527;SDS011;1778;47.966;7.854;2022-08-19T03:46:02;18.30;;;16.40;;
3527;SDS011;1778;47.966;7.854;2022-08-19T03:47:12;17.67;;;16.07;;
3527;SDS011;1778;47.966;7.854;2022-08-19T03:48:17;17.80;;;16.00;;
3527;SDS011;1778;47.966;7.854;2022-08-19T03:49:19;17.37;;;15.77;;
3527;SDS011;1778;47.966;7.854;2022-08-19T03:50:28;18.17;;;16.37;;
3527;SDS011;1778;47.966;7.854;2022-08-19T03:51:31;17.20;;;15.50;;
3527;SDS011;1778;47.966;7.854;2022-08-19T03:52:35;20.77;;;16.30;;
3527;SDS011;1778;47.966;7.854;2022-08-19T03:53:37;18.83;;;17.07;;
3527;SDS011;1778;47.966;7.854;2022-08-19T03:54:38;17.87;;;15.97;;
3527;SDS011;1778;47.966;7.854;2022-08-19T03:55:40;17.20;;;15.57;;
3527;SDS011;1778;47.966;7.854;2022-08-19T03:56:43;18.40;;;16.50;;
3527;SDS011;1778;47.966;7.854;2022-08-19T03:57:45;18.50;;;16.70;;
3527;SDS011;1778;47.966;7.854;2022-08-19T03:58:49;18.80;;;16.83;;
3527;SDS011;1778;47.966;7.854;2022-08-19T03:59:50;18.17;;;16.33;;
3527;SDS011;1778;47.966;7.854;2022-08-19T04:00:52;17.83;;;16.20;;
3527;SDS011;1778;47.966;7.854;2022-08-19T04:01:54;19.07;;;17.03;;
3527;SDS011;1778;47.966;7.854;2022-08-19T04:03:00;17.13;;;15.57;;
3527;SDS011;1778;47.966;7.854;2022-08-19T04:04:03;18.47;;;16.00;;
3527;SDS011;1778;47.966;7.854;2022-08-19T04:05:05;18.60;;;16.73;;
3527;SDS011;1778;47.966;7.854;2022-08-19T04:06:19;17.77;;;16.03;;
3527;SDS011;1778;47.966;7.854;2022-08-19T04:07:22;17.53;;;15.73;;
3527;SDS011;1778;47.966;7.854;2022-08-19T04:08:23;16.80;;;14.97;;
3527;SDS011;1778;47.966;7.854;2022-08-19T04:09:26;21.23;;;16.60;;
3527;SDS011;1778;47.966;7.854;2022-08-19T04:10:28;17.30;;;15.60;;
3527;SDS011;1778;47.966;7.854;2022-08-19T04:11:32;17.37;;;15.77;;
3527;SDS011;1778;47.966;7.854;2022-08-19T04:12:44;18.90;;;16.67;;
3527;SDS011;1778;47.966;7.854;2022-08-19T04:13:49;19.27;;;16.60;;
3527;SDS011;1778;47.966;7.854;2022-08-19T04:14:52;17.70;;;15.90;;
3527;SDS011;1778;47.966;7.854;2022-08-19T04:15:53;18.90;;;17.20;;
3527;SDS011;1778;47.966;7.854;2022-08-19T04:16:55;18.30;;;16.40;;
3527;SDS011;1778;47.966;7.854;2022-08-19T04:17:58;16.63;;;15.00;;
3527;SDS011;1778;47.966;7.854;2022-08-19T04:19:00;18.13;;;16.43;;
3527;SDS011;1778;47.966;7.854;2022-08-19T04:20:03;17.00;;;15.30;;
3527;SDS011;1778;47.966;7.854;2022-08-19T04:21:07;18.73;;;16.83;;
3527;SDS011;1778;47.966;7.854;2022-08-19T04:22:09;18.93;;;17.13;;
3527;SDS011;1778;47.966;7.854;2022-08-19T04:23:12;22.03;;;17.63;;
3527;SDS011;1778;47.966;7.854;2022-08-19T04:24:14;18.60;;;16.70;;
3527;SDS011;1778;47.966;7.854;2022-08-19T04:25:16;18.47;;;16.53;;
3527;SDS011;1778;47.966;7.854;2022-08-19T04:26:19;19.10;;;17.30;;
3527;SDS011;1778;47.966;7.854;2022-08-19T04:27:23;18.40;;;16.50;;
3527;SDS011;1778;47.966;7.854;2022-08-19T04:28:25;21.93;;;16.90;;
3527;SDS011;1778;47.966;7.854;2022-08-19T04:29:27;17.23;;;15.50;;
3527;SDS011;1778;47.966;7.854;2022-08-19T04:30:30;16.43;;;14.90;;
3527;SDS011;1778;47.966;7.854;2022-08-19T04:31:38;17.13;;;15.43;;
3527;SDS011;1778;47.966;7.854;2022-08-19T04:32:42;18.33;;;16.50;;
3527;SDS011;1778;47.966;7.854;2022-08-19T04:33:44;19.03;;;17.23;;
3527;SDS011;1778;47.966;7.854;2022-08-19T04:34:46;19.47;;;17.50;;
3527;SDS011;1778;47.966;7.854;2022-08-19T04:36:08;17.50;;;15.70;;
3527;SDS011;1778;47.966;7.854;2022-08-19T04:37:21;16.90;;;15.10;;
3527;SDS011;1778;47.966;7.854;2022-08-19T04:38:23;17.57;;;15.67;;
3527;SDS011;1778;47.966;7.854;2022-08-19T04:39:29;16.23;;;14.67;;
3527;SDS011;1778;47.966;7.854;2022-08-19T04:40:50;18.57;;;16.47;;
3527;SDS011;1778;47.966;7.854;2022-08-19T04:42:11;17.93;;;16.10;;
3527;SDS011;1778;47.966;7.854;2022-08-19T04:43:32;16.80;;;15.17;;
3527;SDS011;1778;47.966;7.854;2022-08-19T04:44:36;18.40;;;16.60;;
3527;SDS011;1778;47.966;7.854;2022-08-19T04:45:46;18.83;;;17.03;;
3527;SDS011;1778;47.966;7.854;2022-08-19T04:46:48;17.80;;;16.10;;
3527;SDS011;1778;47.966;7.854;2022-08-19T04:47:54;17.60;;;15.87;;
3527;SDS011;1778;47.966;7.854;2022-08-19T04:49:19;24.43;;;15.63;;
3527;SDS011;1778;47.966;7.854;2022-08-19T04:50:23;17.53;;;15.60;;
3527;SDS011;1778;47.966;7.854;2022-08-19T04:51:26;20.80;;;17.20;;
3527;SDS011;1778;47.966;7.854;2022-08-19T04:52:28;18.97;;;16.93;;
3527;SDS011;1778;47.966;7.854;2022-08-19T04:53:34;18.13;;;16.23;;
3527;SDS011;1778;47.966;7.854;2022-08-19T04:54:38;17.77;;;15.97;;
3527;SDS011;1778;47.966;7.854;2022-08-19T04:55:41;17.87;;;15.97;;
3527;SDS011;1778;47.966;7.854;2022-08-19T04:56:43;17.03;;;15.33;;
3527;SDS011;1778;47.966;7.854;2022-08-19T04:57:45;18.50;;;16.30;;
3527;SDS011;1778;47.966;7.854;2022-08-19T04:58:48;18.00;;;16.17;;
3527;SDS011;1778;47.966;7.854;2022-08-19T04:59:56;17.57;;;15.70;;
3527;SDS011;1778;47.966;7.854;2022-08-19T05:00:57;18.27;;;16.50;;
3527;SDS011;1778;47.966;7.854;2022-08-19T05:02:01;17.87;;;16.13;;
3527;SDS011;1778;47.966;7.854;2022-08-19T05:03:03;18.17;;;15.40;;
3527;SDS011;1778;47.966;7.854;2022-08-19T05:04:07;17.90;;;15.67;;
3527;SDS011;1778;47.966;7.854;2022-08-19T05:05:09;17.87;;;15.37;;
3527;SDS011;1778;47.966;7.854;2022-08-19T05:06:12;18.27;;;16.30;;
3527;SDS011;1778;47.966;7.854;2022-08-19T05:07:15;17.30;;;15.50;;
3527;SDS011;1778;47.966;7.854;2022-08-19T05:08:19;17.83;;;16.07;;
3527;SDS011;1778;47.966;7.854;2022-08-19T05:09:31;17.13;;;15.53;;
3527;SDS011;1778;47.966;7.854;2022-08-19T05:10:53;16.30;;;14.77;;
3527;SDS011;1778;47.966;7.854;2022-08-19T05:11:55;17.00;;;14.67;;
3527;SDS011;1778;47.966;7.854;2022-08-19T05:12:57;17.60;;;15.70;;
3527;SDS011;1778;47.966;7.854;2022-08-19T05:13:59;16.27;;;14.67;;
3527;SDS011;1778;47.966;7.854;2022-08-19T05:15:02;18.80;;;16.80;;
3527;SDS011;1778;47.966;7.854;2022-08-19T05:16:08;16.53;;;14.83;;
3527;SDS011;1778;47.966;7.854;2022-08-19T05:17:11;18.40;;;14.40;;
3527;SDS011;1778;47.966;7.854;2022-08-19T05:18:33;16.90;;;15.10;;
3527;SDS011;1778;47.966;7.854;2022-08-19T05:19:54;17.03;;;15.40;;
3527;SDS011;1778;47.966;7.854;2022-08-19T05:21:15;16.47;;;14.70;;
3527;SDS011;1778;47.966;7.854;2022-08-19T05:22:37;16.17;;;14.67;;
3527;SDS011;1778;47.966;7.854;2022-08-19T05:23:39;16.87;;;15.27;;
3527;SDS011;1778;47.966;7.854;2022-08-19T05:24:41;16.40;;;14.23;;
3527;SDS011;1778;47.966;7.854;2022-08-19T05:26:03;19.07;;;14.90;;
3527;SDS011;1778;47.966;7.854;2022-08-19T05:27:05;15.57;;;13.87;;
3527;SDS011;1778;47.966;7.854;2022-08-19T05:28:07;16.53;;;14.93;;
3527;SDS011;1778;47.966;7.854;2022-08-19T05:29:09;15.43;;;13.97;;
3527;SDS011;1778;47.966;7.854;2022-08-19T05:30:11;17.07;;;14.60;;
3527;SDS011;1778;47.966;7.854;2022-08-19T05:31:14;16.57;;;14.87;;
3527;SDS011;1778;47.966;7.854;2022-08-19T05:32:15;17.00;;;15.20;;
3527;SDS011;1778;47.966;7.854;2022-08-19T05:33:17;14.60;;;13.30;;
3527;SDS011;1778;47.966;7.854;2022-08-19T05:34:20;25.30;;;15.10;;
3527;SDS011;1778;47.966;7.854;2022-08-19T05:35:23;15.70;;;14.00;;
3527;SDS011;1778;47.966;7.854;2022-08-19T05:36:26;16.70;;;15.00;;
3527;SDS011;1778;47.966;7.854;2022-08-19T05:37:28;16.30;;;14.80;;
3527;SDS011;1778;47.966;7.854;2022-08-19T05:38:30;16.90;;;15.00;;
3527;SDS011;1778;47.966;7.854;2022-08-19T05:39:33;21.93;;;14.17;;
3527;SDS011;1778;47.966;7.854;2022-08-19T05:40:36;16.70;;;15.00;;
3527;SDS011;1778;47.966;7.854;2022-08-19T05:41:42;15.63;;;14.17;;
3527;SDS011;1778;47.966;7.854;2022-08-19T05:42:45;17.37;;;15.10;;
3527;SDS011;1778;47.966;7.854;2022-08-19T05:43:55;15.77;;;14.23;;
3527;SDS011;1778;47.966;7.854;2022-08-19T05:44:58;16.27;;;14.67;;
3527;SDS011;1778;47.966;7.854;2022-08-19T05:46:00;16.80;;;14.33;;
3527;SDS011;1778;47.966;7.854;2022-08-19T05:47:02;16.10;;;14.40;;
3527;SDS011;1778;47.966;7.854;2022-08-19T05:48:06;16.23;;;14.50;;
3527;SDS011;1778;47.966;7.854;2022-08-19T05:49:08;17.27;;;15.43;;
3527;SDS011;1778;47.966;7.854;2022-08-19T05:50:10;17.17;;;13.73;;
3527;SDS011;1778;47.966;7.854;2022-08-19T05:51:12;14.83;;;13.37;;
3527;SDS011;1778;47.966;7.854;2022-08-19T05:52:18;15.47;;;13.73;;
3527;SDS011;1778;47.966;7.854;2022-08-19T05:53:25;17.20;;;13.80;;
3527;SDS011;1778;47.966;7.854;2022-08-19T05:54:27;25.27;;;12.83;;
3527;SDS011;1778;47.966;7.854;2022-08-19T05:55:29;15.17;;;13.63;;
3527;SDS011;1778;47.966;7.854;2022-08-19T05:56:30;15.90;;;13.87;;
3527;SDS011;1778;47.966;7.854;2022-08-19T05:57:32;16.47;;;14.80;;
3527;SDS011;1778;47.966;7.854;2022-08-19T05:58:34;16.07;;;14.47;;
3527;SDS011;1778;47.966;7.854;2022-08-19T05:59:37;15.27;;;13.67;;
3527;SDS011;1778;47.966;7.854;2022-08-19T06:00:39;13.83;;;12.63;;
3527;SDS011;1778;47.966;7.854;2022-08-19T06:01:43;16.20;;;13.67;;
3527;SDS011;1778;47.966;7.854;2022-08-19T06:02:46;13.60;;;12.27;;
3527;SDS011;1778;47.966;7.854;2022-08-19T06:03:48;16.87;;;14.20;;
3527;SDS011;1778;47.966;7.854;2022-08-19T06:04:50;13.80;;;12.40;;
3527;SDS011;1778;47.966;7.854;2022-08-19T06:05:51;14.37;;;12.87;;
3527;SDS011;1778;47.966;7.854;2022-08-19T06:06:55;12.53;;;11.33;;
3527;SDS011;1778;47.966;7.854;2022-08-19T06:07:58;15.17;;;13.67;;
3527;SDS011;1778;47.966;7.854;2022-08-19T06:09:06;14.07;;;12.67;;
3527;SDS011;1778;47.966;7.854;2022-08-19T06:10:10;14.20;;;11.77;;
3527;SDS011;1778;47.966;7.854;2022-08-19T06:12:20;15.33;;;13.83;;
3527;SDS011;1778;47.966;7.854;2022-08-19T06:13:25;15.90;;;14.30;;
3527;SDS011;1778;47.966;7.854;2022-08-19T06:14:33;14.63;;;13.13;;
3527;SDS011;1778;47.966;7.854;2022-08-19T06:15:41;13.87;;;12.53;;
3527;SDS011;1778;47.966;7.854;2022-08-19T06:16:44;14.23;;;12.77;;
3527;SDS011;1778;47.966;7.854;2022-08-19T06:17:46;15.67;;;13.10;;
3527;SDS011;1778;47.966;7.854;2022-08-19T06:18:49;14.20;;;12.83;;
3527;SDS011;1778;47.966;7.854;2022-08-19T06:19:54;13.70;;;12.40;;
3527;SDS011;1778;47.966;7.854;2022-08-19T06:20:56;17.50;;;13.70;;
3527;SDS011;1778;47.966;7.854;2022-08-19T06:21:58;13.90;;;12.60;;
3527;SDS011;1778;47.966;7.854;2022-08-19T06:23:02;18.00;;;14.00;;
3527;SDS011;1778;47.966;7.854;2022-08-19T06:24:04;13.10;;;11.90;;
3527;SDS011;1778;47.966;7.854;2022-08-19T06:25:08;14.90;;;13.30;;
3527;SDS011;1778;47.966;7.854;2022-08-19T06:26:12;14.03;;;12.63;;
3527;SDS011;1778;47.966;7.854;2022-08-19T06:27:14;15.10;;;13.10;;
3527;SDS011;1778;47.966;7.854;2022-08-19T06:28:17;15.37;;;13.77;;
3527;SDS011;1778;47.966;7.854;2022-08-19T06:29:20;16.27;;;13.37;;
3527;SDS011;1778;47.966;7.854;2022-08-19T06:30:25;12.60;;;11.43;;
3527;SDS011;1778;47.966;7.854;2022-08-19T06:31:28;13.37;;;11.97;;